Time;durP1;ratioP1;P1;durP2;ratioP2;P2;SDS_P1;SDS_P2;PMS_P1;PMS_P2;Temp;Humidity;BMP_temperature;BMP_pressure;BME280_temperature;BME280_humidity;BME280_pressure;Samples;Min_cycle;Max_cycle;Signal;HPM_P1;HPM_P2
2024/01/13 00:01:55;;;;;;;36.47;19.20;;;;;;;;;;5094398;28;20470;-65
2024/01/13 00:04:23;;;;;;;37.17;20.87;;;;;;;;;;5093041;28;20516;-64
2024/01/13 00:06:49;;;;;;;36.67;19.67;;;;;;;;;;5095466;28;20518;-65
2024/01/13 00:09:16;;;;;;;35.10;17.70;;;;;;;;;;5095089;28;20463;-65
2024/01/13 00:11:42;;;;;;;43.73;19.13;;;;;;;;;;5095819;28;20462;-65
2024/01/13 00:14:08;;;;;;;32.07;17.27;;;;;;;;;;5101663;28;20482;-65
2024/01/13 00:16:35;;;;;;;35.37;19.10;;;;;;;;;;5100467;28;20567;-65
2024/01/13 00:19:01;;;;;;;34.17;18.33;;;;;;;;;;5103070;28;20536;-65
2024/01/13 00:21:29;;;;;;;36.07;18.63;;;;;;;;;;5101789;28;20545;-65
2024/01/13 00:23:56;;;;;;;35.60;19.47;;;;;;;;;;5094684;28;20464;-64
2024/01/13 00:26:23;;;;;;;40.40;19.30;;;;;;;;;;5099287;28;20442;-66
2024/01/13 00:28:50;;;;;;;37.57;18.77;;;;;;;;;;5096862;28;20439;-65
2024/01/13 00:31:16;;;;;;;37.13;18.60;;;;;;;;;;5083720;28;20436;-65
2024/01/13 00:33:43;;;;;;;30.37;17.93;;;;;;;;;;5095987;28;20476;-64
2024/01/13 00:36:10;;;;;;;30.17;16.60;;;;;;;;;;5101826;28;20542;-65
2024/01/13 00:38:38;;;;;;;34.00;18.43;;;;;;;;;;5091859;28;20539;-65
2024/01/13 00:41:05;;;;;;;33.57;18.37;;;;;;;;;;5106428;28;20834;-66
2024/01/13 00:43:31;;;;;;;34.47;17.50;;;;;;;;;;5099763;28;20487;-66
2024/01/13 00:45:57;;;;;;;32.93;17.07;;;;;;;;;;5093105;28;20443;-66
2024/01/13 00:48:24;;;;;;;39.37;19.23;;;;;;;;;;5094244;28;20566;-66
2024/01/13 00:50:50;;;;;;;31.33;16.70;;;;;;;;;;5094818;28;20471;-64
2024/01/13 00:53:17;;;;;;;30.70;17.40;;;;;;;;;;5096548;28;20450;-65
2024/01/13 00:55:45;;;;;;;31.40;16.93;;;;;;;;;;5099260;28;20809;-66
2024/01/13 00:58:11;;;;;;;30.20;16.50;;;;;;;;;;5096309;28;20454;-64
2024/01/13 01:00:37;;;;;;;38.60;16.17;;;;;;;;;;5093830;28;20524;-64
2024/01/13 01:03:04;;;;;;;29.40;16.13;;;;;;;;;;5096601;28;21022;-64
2024/01/13 01:05:30;;;;;;;26.63;14.80;;;;;;;;;;5097256;28;20547;-64
2024/01/13 01:07:57;;;;;;;29.60;17.00;;;;;;;;;;5095350;28;20518;-65
2024/01/13 01:10:23;;;;;;;22.37;14.40;;;;;;;;;;5102421;28;20490;-64
2024/01/13 01:12:51;;;;;;;26.70;16.80;;;;;;;;;;5093530;28;20595;-65
2024/01/13 01:15:17;;;;;;;26.33;15.80;;;;;;;;;;5084411;28;20855;-64
2024/01/13 01:17:44;;;;;;;31.60;16.80;;;;;;;;;;5089746;28;20491;-64
2024/01/13 01:20:11;;;;;;;26.23;14.30;;;;;;;;;;5085057;28;20490;-65
2024/01/13 01:22:37;;;;;;;24.70;14.83;;;;;;;;;;5095864;28;20457;-64
2024/01/13 01:25:04;;;;;;;30.03;15.67;;;;;;;;;;5103671;28;20467;-64
2024/01/13 01:27:30;;;;;;;25.90;15.30;;;;;;;;;;5098104;28;20438;-64
2024/01/13 01:29:58;;;;;;;27.60;16.33;;;;;;;;;;5092430;28;20475;-64
2024/01/13 01:32:24;;;;;;;27.17;14.93;;;;;;;;;;5091654;28;20600;-64
2024/01/13 01:34:51;;;;;;;24.07;15.00;;;;;;;;;;5103073;28;20533;-64
2024/01/13 01:37:17;;;;;;;23.37;13.27;;;;;;;;;;5090428;28;20463;-64
2024/01/13 01:39:44;;;;;;;25.93;13.63;;;;;;;;;;5102456;28;20482;-64
2024/01/13 01:42:10;;;;;;;29.77;14.47;;;;;;;;;;5094216;28;20518;-64
2024/01/13 01:44:36;;;;;;;22.67;13.90;;;;;;;;;;5104777;28;21152;-64
2024/01/13 01:47:05;;;;;;;23.30;12.60;;;;;;;;;;5099770;28;20549;-65
2024/01/13 01:49:32;;;;;;;24.07;14.83;;;;;;;;;;5096474;28;20485;-65
2024/01/13 01:51:58;;;;;;;21.43;13.80;;;;;;;;;;5102819;28;20471;-64
2024/01/13 01:54:24;;;;;;;22.57;14.60;;;;;;;;;;5086554;28;20812;-65
2024/01/13 01:56:51;;;;;;;19.70;12.50;;;;;;;;;;5089883;28;20595;-64
2024/01/13 01:59:17;;;;;;;18.50;11.70;;;;;;;;;;5095115;28;20475;-64
2024/01/13 02:01:45;;;;;;;20.77;12.40;;;;;;;;;;5093310;28;20455;-65
2024/01/13 02:04:13;;;;;;;20.00;12.60;;;;;;;;;;5093045;28;20487;-65
2024/01/13 02:06:39;;;;;;;24.53;13.60;;;;;;;;;;5099878;28;21001;-65
2024/01/13 02:09:06;;;;;;;21.50;13.93;;;;;;;;;;5096729;28;20455;-65
2024/01/13 02:11:33;;;;;;;21.10;13.80;;;;;;;;;;5095445;28;20502;-65
2024/01/13 02:13:59;;;;;;;21.57;13.10;;;;;;;;;;5099214;28;20476;-65
2024/01/13 02:16:25;;;;;;;18.70;12.40;;;;;;;;;;5100148;28;20509;-65
2024/01/13 02:18:52;;;;;;;20.50;11.40;;;;;;;;;;5095533;28;20448;-65
2024/01/13 02:21:20;;;;;;;19.27;12.60;;;;;;;;;;5094807;28;20489;-65
2024/01/13 02:23:47;;;;;;;19.87;12.67;;;;;;;;;;5097799;28;20478;-64
2024/01/13 02:26:14;;;;;;;18.37;12.10;;;;;;;;;;5097336;28;20545;-64
2024/01/13 02:28:40;;;;;;;21.70;12.17;;;;;;;;;;5093729;28;21155;-64
2024/01/13 02:31:07;;;;;;;17.70;11.43;;;;;;;;;;5088467;28;20490;-65
2024/01/13 02:33:33;;;;;;;15.60;11.57;;;;;;;;;;5097344;28;20443;-65
2024/01/13 02:35:59;;;;;;;18.67;12.23;;;;;;;;;;5093879;28;20483;-65
2024/01/13 02:38:26;;;;;;;20.53;11.83;;;;;;;;;;5093834;28;20585;-65
2024/01/13 02:40:54;;;;;;;20.87;12.20;;;;;;;;;;5094104;28;21251;-64
2024/01/13 02:43:20;;;;;;;18.47;12.37;;;;;;;;;;5093270;28;20455;-64
2024/01/13 02:45:47;;;;;;;21.53;11.33;;;;;;;;;;5094965;28;20489;-65
2024/01/13 02:48:15;;;;;;;22.60;13.07;;;;;;;;;;5107901;28;20506;-64
2024/01/13 02:50:42;;;;;;;18.03;11.87;;;;;;;;;;5095068;28;21061;-64
2024/01/13 02:53:09;;;;;;;16.37;11.30;;;;;;;;;;5101342;28;20480;-65
2024/01/13 02:55:39;;;;;;;18.27;12.73;;;;;;;;;;5097218;28;20516;-64
2024/01/13 02:58:07;;;;;;;18.37;10.97;;;;;;;;;;5088965;28;20578;-65
2024/01/13 03:00:33;;;;;;;17.30;11.00;;;;;;;;;;5102977;28;20455;-65
2024/01/13 03:03:00;;;;;;;15.90;10.87;;;;;;;;;;5101890;28;20527;-65
2024/01/13 03:05:26;;;;;;;15.93;10.80;;;;;;;;;;5094519;28;20550;-65
2024/01/13 03:07:52;;;;;;;12.97;8.97;;;;;;;;;;5107920;28;20477;-65
2024/01/13 03:10:19;;;;;;;17.53;10.90;;;;;;;;;;5099381;28;20812;-66
2024/01/13 03:12:45;;;;;;;15.63;9.70;;;;;;;;;;5102561;28;20450;-65
2024/01/13 03:15:13;;;;;;;15.47;10.07;;;;;;;;;;5090572;28;20460;-65
2024/01/13 03:17:40;;;;;;;15.37;9.73;;;;;;;;;;5093821;28;20478;-64
2024/01/13 03:20:07;;;;;;;15.60;9.40;;;;;;;;;;5095666;28;20454;-65
2024/01/13 03:22:33;;;;;;;14.40;9.30;;;;;;;;;;5094562;28;21075;-65
2024/01/13 03:24:59;;;;;;;14.40;8.50;;;;;;;;;;5103032;28;20514;-64
2024/01/13 03:27:26;;;;;;;13.77;8.67;;;;;;;;;;5096947;28;20503;-64
2024/01/13 03:29:52;;;;;;;14.20;9.20;;;;;;;;;;5094336;28;20484;-64
2024/01/13 03:32:20;;;;;;;13.57;9.80;;;;;;;;;;5087063;28;20510;-65
2024/01/13 03:34:46;;;;;;;11.87;8.73;;;;;;;;;;5100359;28;20554;-65
2024/01/13 03:37:13;;;;;;;15.97;9.23;;;;;;;;;;5086412;28;20475;-64
2024/01/13 03:39:39;;;;;;;14.67;10.00;;;;;;;;;;5105881;28;20557;-64
2024/01/13 03:42:05;;;;;;;17.30;10.03;;;;;;;;;;5089557;28;20483;-64
2024/01/13 03:44:32;;;;;;;14.13;9.57;;;;;;;;;;5095493;28;20475;-65
2024/01/13 03:46:59;;;;;;;13.20;8.20;;;;;;;;;;5094179;28;20577;-64
2024/01/13 03:49:26;;;;;;;13.20;10.23;;;;;;;;;;5094058;28;20509;-64
2024/01/13 03:51:53;;;;;;;14.23;8.90;;;;;;;;;;5097472;28;20493;-64
2024/01/13 03:54:19;;;;;;;13.77;9.10;;;;;;;;;;5090280;28;20455;-64
2024/01/13 03:56:45;;;;;;;14.00;8.90;;;;;;;;;;5087243;28;20460;-64
2024/01/13 03:59:12;;;;;;;13.00;9.00;;;;;;;;;;5100133;28;20553;-64
2024/01/13 04:01:39;;;;;;;11.33;8.30;;;;;;;;;;5100375;28;20454;-64
2024/01/13 04:04:05;;;;;;;11.70;8.03;;;;;;;;;;5090664;28;20489;-64
2024/01/13 04:06:33;;;;;;;12.50;8.27;;;;;;;;;;5089034;28;20447;-64
2024/01/13 04:09:00;;;;;;;14.50;8.43;;;;;;;;;;5099175;28;20523;-65
2024/01/13 04:11:26;;;;;;;10.93;8.30;;;;;;;;;;5090552;28;20478;-64
2024/01/13 04:13:52;;;;;;;11.80;8.67;;;;;;;;;;5087898;28;20496;-65
2024/01/13 04:16:19;;;;;;;13.83;8.47;;;;;;;;;;5104396;28;20976;-65
2024/01/13 04:18:45;;;;;;;13.27;9.17;;;;;;;;;;5094726;28;20513;-65
2024/01/13 04:21:11;;;;;;;13.47;8.90;;;;;;;;;;5103345;28;20533;-65
2024/01/13 04:23:39;;;;;;;13.93;9.00;;;;;;;;;;5095421;28;20535;-65
2024/01/13 04:26:06;;;;;;;12.33;9.23;;;;;;;;;;5087255;28;20523;-64
2024/01/13 04:28:34;;;;;;;11.37;8.70;;;;;;;;;;5096455;28;20542;-64
2024/01/13 04:31:00;;;;;;;11.97;8.00;;;;;;;;;;5096970;28;20466;-64
2024/01/13 04:33:27;;;;;;;14.67;8.97;;;;;;;;;;5090188;28;20487;-64
2024/01/13 04:35:53;;;;;;;14.60;9.43;;;;;;;;;;5091863;28;20539;-65
2024/01/13 04:38:20;;;;;;;11.90;8.60;;;;;;;;;;5090433;28;20583;-65
2024/01/13 04:40:49;;;;;;;11.03;7.30;;;;;;;;;;5090143;28;20578;-65
2024/01/13 04:43:15;;;;;;;12.63;8.67;;;;;;;;;;5102594;28;20472;-65
2024/01/13 04:45:42;;;;;;;12.40;8.73;;;;;;;;;;5103780;28;20509;-64
2024/01/13 04:48:08;;;;;;;12.37;9.27;;;;;;;;;;5089290;28;20487;-64
2024/01/13 04:50:34;;;;;;;14.10;9.00;;;;;;;;;;5098279;28;20478;-65
2024/01/13 04:53:01;;;;;;;10.50;8.10;;;;;;;;;;5093373;28;21171;-64
2024/01/13 04:55:27;;;;;;;11.97;8.33;;;;;;;;;;5100800;28;20473;-65
2024/01/13 04:57:55;;;;;;;13.53;7.90;;;;;;;;;;5093104;28;20606;-64
2024/01/13 05:00:21;;;;;;;15.67;9.30;;;;;;;;;;5095211;28;20474;-64
2024/01/13 05:02:48;;;;;;;11.70;9.00;;;;;;;;;;5102043;28;20490;-64
2024/01/13 05:05:14;;;;;;;13.93;9.63;;;;;;;;;;5097161;28;20529;-65
2024/01/13 05:07:41;;;;;;;19.00;9.77;;;;;;;;;;5097787;28;20485;-65
2024/01/13 05:10:07;;;;;;;11.80;8.90;;;;;;;;;;5096131;28;20458;-65
2024/01/13 05:12:34;;;;;;;12.30;8.60;;;;;;;;;;5091211;28;20543;-65
2024/01/13 05:15:01;;;;;;;14.77;9.10;;;;;;;;;;5094442;28;20505;-65
2024/01/13 05:17:28;;;;;;;11.80;8.67;;;;;;;;;;5096504;28;20562;-65
2024/01/13 05:19:54;;;;;;;12.10;8.33;;;;;;;;;;5092170;28;20494;-65
2024/01/13 05:22:21;;;;;;;12.70;8.50;;;;;;;;;;5097377;28;20461;-64
2024/01/13 05:24:47;;;;;;;14.43;9.10;;;;;;;;;;5089961;28;21317;-65
2024/01/13 05:27:14;;;;;;;14.60;9.00;;;;;;;;;;5092149;28;21024;-65
2024/01/13 05:29:40;;;;;;;12.73;8.57;;;;;;;;;;5095521;28;20443;-64
2024/01/13 05:32:08;;;;;;;15.63;10.37;;;;;;;;;;5093410;28;20530;-65
2024/01/13 05:34:35;;;;;;;14.47;8.63;;;;;;;;;;5089266;28;20454;-65
2024/01/13 05:37:01;;;;;;;13.70;10.17;;;;;;;;;;5099033;28;20531;-65
2024/01/13 05:39:27;;;;;;;14.37;9.73;;;;;;;;;;5092427;28;20526;-65
2024/01/13 05:41:54;;;;;;;14.23;9.60;;;;;;;;;;5091211;28;20475;-66
2024/01/13 05:44:21;;;;;;;13.10;9.83;;;;;;;;;;5087586;28;20523;-66
2024/01/13 05:46:47;;;;;;;14.27;9.80;;;;;;;;;;5098279;28;20466;-66
2024/01/13 05:49:15;;;;;;;15.60;9.87;;;;;;;;;;5097515;28;20456;-66
2024/01/13 05:51:41;;;;;;;12.43;8.70;;;;;;;;;;5095802;28;20586;-66
2024/01/13 05:54:08;;;;;;;15.13;9.03;;;;;;;;;;5088274;28;20537;-66
2024/01/13 05:56:34;;;;;;;15.07;10.30;;;;;;;;;;5102556;28;20492;-66
2024/01/13 05:59:00;;;;;;;13.00;8.90;;;;;;;;;;5088848;28;20534;-65
2024/01/13 06:01:27;;;;;;;13.67;9.67;;;;;;;;;;5101125;28;20482;-64
2024/01/13 06:03:53;;;;;;;12.90;9.30;;;;;;;;;;5096013;28;20544;-65
2024/01/13 06:06:21;;;;;;;13.97;9.77;;;;;;;;;;5095049;28;20919;-64
2024/01/13 06:08:47;;;;;;;12.10;8.70;;;;;;;;;;5097427;28;20562;-65
2024/01/13 06:11:14;;;;;;;16.20;10.00;;;;;;;;;;5089242;28;20531;-64
2024/01/13 06:13:40;;;;;;;16.00;9.63;;;;;;;;;;5090940;28;20494;-64
2024/01/13 06:16:08;;;;;;;11.90;8.77;;;;;;;;;;5084997;28;20480;-65
2024/01/13 06:18:34;;;;;;;12.37;8.70;;;;;;;;;;5093265;28;20585;-64
2024/01/13 06:21:01;;;;;;;22.90;10.57;;;;;;;;;;5098985;28;20483;-65
2024/01/13 06:23:29;;;;;;;15.10;9.27;;;;;;;;;;5099390;28;20509;-65
2024/01/13 06:25:55;;;;;;;15.23;11.80;;;;;;;;;;5095923;28;21019;-64
2024/01/13 06:28:21;;;;;;;15.47;10.60;;;;;;;;;;5093392;28;20534;-65
2024/01/13 06:30:48;;;;;;;17.90;12.00;;;;;;;;;;5094645;28;20477;-65
2024/01/13 06:33:14;;;;;;;24.37;14.10;;;;;;;;;;5088962;28;20515;-64
2024/01/13 06:35:41;;;;;;;18.13;12.60;;;;;;;;;;5084209;28;20456;-65
2024/01/13 06:38:07;;;;;;;22.30;12.40;;;;;;;;;;5090390;28;21171;-65
2024/01/13 06:40:35;;;;;;;18.30;12.83;;;;;;;;;;5091587;28;20451;-65
2024/01/13 06:43:01;;;;;;;21.13;13.80;;;;;;;;;;5097517;28;20464;-65
2024/01/13 06:45:28;;;;;;;20.37;14.00;;;;;;;;;;5089009;28;20515;-65
2024/01/13 06:47:54;;;;;;;20.20;13.60;;;;;;;;;;5087598;28;20443;-64
2024/01/13 06:50:20;;;;;;;22.87;14.37;;;;;;;;;;5088521;28;20451;-64
2024/01/13 06:52:47;;;;;;;25.37;16.07;;;;;;;;;;5088565;28;20527;-65
2024/01/13 06:55:13;;;;;;;22.13;16.67;;;;;;;;;;5096846;28;20502;-66
2024/01/13 06:57:41;;;;;;;24.77;16.20;;;;;;;;;;5096445;28;21024;-65
2024/01/13 07:00:08;;;;;;;25.90;16.60;;;;;;;;;;5090999;28;20562;-65
2024/01/13 07:02:34;;;;;;;26.70;15.63;;;;;;;;;;5092829;28;20491;-65
2024/01/13 07:05:01;;;;;;;24.33;15.70;;;;;;;;;;5090016;28;20518;-65
2024/01/13 07:07:28;;;;;;;20.37;13.93;;;;;;;;;;5084436;28;20962;-65
2024/01/13 07:09:54;;;;;;;22.90;16.30;;;;;;;;;;5087721;28;20555;-65
2024/01/13 07:12:21;;;;;;;24.83;16.10;;;;;;;;;;5092691;28;20523;-65
2024/01/13 07:14:48;;;;;;;25.80;16.90;;;;;;;;;;5080264;28;20571;-64
2024/01/13 07:17:15;;;;;;;23.33;15.10;;;;;;;;;;5098359;28;21193;-64
2024/01/13 07:19:42;;;;;;;25.33;16.03;;;;;;;;;;5085740;28;20497;-65
2024/01/13 07:22:09;;;;;;;29.47;17.83;;;;;;;;;;5094731;28;20451;-64
2024/01/13 07:24:35;;;;;;;28.27;17.90;;;;;;;;;;5088341;28;20498;-65
2024/01/13 07:27:01;;;;;;;28.23;17.20;;;;;;;;;;5085812;28;20815;-66
2024/01/13 07:29:28;;;;;;;31.00;18.20;;;;;;;;;;5090017;28;20471;-66
2024/01/13 07:31:56;;;;;;;31.07;18.33;;;;;;;;;;5085574;28;20487;-66
2024/01/13 07:34:22;;;;;;;28.33;17.27;;;;;;;;;;5089967;28;20443;-64
2024/01/13 07:36:48;;;;;;;32.53;19.53;;;;;;;;;;5094117;28;20490;-65
2024/01/13 07:39:15;;;;;;;33.83;20.13;;;;;;;;;;5096790;28;20553;-65
2024/01/13 07:41:43;;;;;;;34.80;19.80;;;;;;;;;;5097742;28;20515;-65
2024/01/13 07:44:10;;;;;;;30.27;20.83;;;;;;;;;;5096480;28;20470;-66
2024/01/13 07:46:39;;;;;;;39.13;20.50;;;;;;;;;;5100633;28;20443;-66
2024/01/13 07:49:07;;;;;;;34.63;21.00;;;;;;;;;;5091884;28;20501;-65
2024/01/13 07:51:35;;;;;;;34.40;21.53;;;;;;;;;;5081361;28;21094;-64
2024/01/13 07:54:01;;;;;;;40.30;22.03;;;;;;;;;;5087146;28;21136;-66
2024/01/13 07:56:28;;;;;;;33.70;20.43;;;;;;;;;;5090141;28;20451;-64
2024/01/13 07:58:54;;;;;;;30.57;18.20;;;;;;;;;;5088921;28;20483;-64
2024/01/13 08:01:21;;;;;;;28.50;17.80;;;;;;;;;;5084712;28;20513;-66
2024/01/13 08:03:47;;;;;;;26.60;18.10;;;;;;;;;;5084993;28;20801;-66
2024/01/13 08:06:16;;;;;;;30.37;18.80;;;;;;;;;;5084552;28;20793;-64
2024/01/13 08:08:42;;;;;;;27.97;19.17;;;;;;;;;;5087825;28;20482;-65
2024/01/13 08:11:09;;;;;;;28.03;19.27;;;;;;;;;;5084563;28;20513;-64
2024/01/13 08:13:35;;;;;;;33.83;19.23;;;;;;;;;;5086038;28;20490;-66
2024/01/13 08:16:01;;;;;;;35.67;21.17;;;;;;;;;;5081044;28;21102;-65
2024/01/13 08:18:28;;;;;;;36.43;20.90;;;;;;;;;;5087783;28;20487;-65
2024/01/13 08:20:54;;;;;;;31.63;19.67;;;;;;;;;;5089422;28;20483;-65
2024/01/13 08:23:22;;;;;;;30.57;20.30;;;;;;;;;;5090182;28;20459;-65
2024/01/13 08:25:48;;;;;;;31.40;18.67;;;;;;;;;;5091622;28;20503;-65
2024/01/13 08:28:15;;;;;;;28.60;18.73;;;;;;;;;;5093215;28;20871;-65
2024/01/13 08:30:41;;;;;;;29.13;18.27;;;;;;;;;;5092344;28;20518;-68
2024/01/13 08:33:07;;;;;;;25.73;16.50;;;;;;;;;;5091209;28;20479;-70
2024/01/13 08:35:34;;;;;;;27.60;17.33;;;;;;;;;;5091759;28;20498;-70
2024/01/13 08:38:01;;;;;;;26.90;15.80;;;;;;;;;;5094749;28;20469;-65
2024/01/13 08:40:29;;;;;;;26.03;15.90;;;;;;;;;;5093916;28;20669;-75
2024/01/13 08:42:56;;;;;;;24.60;15.57;;;;;;;;;;5093981;28;20534;-73
2024/01/13 08:45:23;;;;;;;22.13;15.03;;;;;;;;;;5094889;28;20484;-74
2024/01/13 08:47:49;;;;;;;24.43;15.27;;;;;;;;;;5094433;28;20698;-76
2024/01/13 08:50:16;;;;;;;23.83;15.33;;;;;;;;;;5096790;28;20532;-72
2024/01/13 08:52:42;;;;;;;23.90;14.77;;;;;;;;;;5096571;28;20458;-75
2024/01/13 08:55:08;;;;;;;20.87;13.73;;;;;;;;;;5102478;28;20538;-74
2024/01/13 08:57:36;;;;;;;23.03;14.33;;;;;;;;;;5097533;28;20534;-73
2024/01/13 09:00:06;;;;;;;18.70;12.13;;;;;;;;;;5093967;28;20536;-76
2024/01/13 09:02:32;;;;;;;21.60;15.50;;;;;;;;;;5096538;28;20458;-75
2024/01/13 09:04:58;;;;;;;20.10;14.27;;;;;;;;;;5098508;28;20490;-76
2024/01/13 09:07:25;;;;;;;21.83;14.70;;;;;;;;;;5098475;28;20534;-76
2024/01/13 09:09:51;;;;;;;20.87;13.83;;;;;;;;;;5110304;28;20510;-75
2024/01/13 09:12:18;;;;;;;23.10;14.50;;;;;;;;;;5108666;28;20830;-75
2024/01/13 09:14:46;;;;;;;22.93;14.53;;;;;;;;;;5104662;28;20481;-74
2024/01/13 09:17:12;;;;;;;20.53;13.60;;;;;;;;;;5092695;28;20498;-79
2024/01/13 09:19:39;;;;;;;23.80;15.40;;;;;;;;;;5098975;28;20475;-73
2024/01/13 09:22:05;;;;;;;20.67;13.60;;;;;;;;;;5097742;28;20473;-74
2024/01/13 09:24:32;;;;;;;22.93;14.30;;;;;;;;;;5101898;28;20451;-74
2024/01/13 09:26:58;;;;;;;27.50;16.87;;;;;;;;;;5106554;28;20553;-74
2024/01/13 09:29:24;;;;;;;23.37;14.13;;;;;;;;;;5096022;28;20545;-74
2024/01/13 09:31:52;;;;;;;25.67;15.90;;;;;;;;;;5091868;28;20534;-76
2024/01/13 09:34:19;;;;;;;25.63;15.03;;;;;;;;;;5093968;28;20492;-76
2024/01/13 09:36:45;;;;;;;21.77;14.83;;;;;;;;;;5096346;28;20487;-75
2024/01/13 09:39:13;;;;;;;23.33;14.60;;;;;;;;;;5097560;28;20546;-75
2024/01/13 09:41:40;;;;;;;24.63;15.90;;;;;;;;;;5097473;28;20458;-75
2024/01/13 09:44:09;;;;;;;25.20;14.83;;;;;;;;;;5102774;28;20478;-75
2024/01/13 09:46:35;;;;;;;24.40;15.13;;;;;;;;;;5094891;28;21003;-76
2024/01/13 09:49:06;;;;;;;26.13;16.03;;;;;;;;;;5103166;28;20827;-76
2024/01/13 09:51:33;;;;;;;26.23;16.87;;;;;;;;;;5091706;28;20490;-74
2024/01/13 09:54:07;;;;;;;27.47;17.57;;;;;;;;;;5103089;28;21379;-75
2024/01/13 09:56:34;;;;;;;27.93;15.10;;;;;;;;;;5097841;28;20765;-75
2024/01/13 09:59:01;;;;;;;27.73;17.07;;;;;;;;;;5099443;28;20483;-75
2024/01/13 10:01:29;;;;;;;26.07;16.63;;;;;;;;;;5096088;28;20459;-75
2024/01/13 10:03:55;;;;;;;23.80;16.23;;;;;;;;;;5094461;28;20498;-75
2024/01/13 10:06:24;;;;;;;30.20;18.87;;;;;;;;;;5108667;28;20558;-76
2024/01/13 10:08:50;;;;;;;29.13;17.97;;;;;;;;;;5101600;28;20529;-75
2024/01/13 10:11:17;;;;;;;31.40;19.93;;;;;;;;;;5099140;28;20455;-75
2024/01/13 10:13:44;;;;;;;34.67;19.80;;;;;;;;;;5096495;28;20833;-74
2024/01/13 10:16:11;;;;;;;28.30;18.00;;;;;;;;;;5104315;28;20451;-75
2024/01/13 10:18:39;;;;;;;27.70;18.33;;;;;;;;;;5093226;28;20456;-74
2024/01/13 10:21:06;;;;;;;26.70;17.50;;;;;;;;;;5101673;28;20465;-76
2024/01/13 10:23:34;;;;;;;29.80;18.13;;;;;;;;;;5091344;28;20462;-75
2024/01/13 10:26:00;;;;;;;28.47;18.83;;;;;;;;;;5091870;28;20892;-75
2024/01/13 10:28:27;;;;;;;32.67;20.97;;;;;;;;;;5104220;28;20511;-74
2024/01/13 10:30:53;;;;;;;27.40;17.10;;;;;;;;;;5098986;28;20545;-75
2024/01/13 10:33:20;;;;;;;30.27;19.50;;;;;;;;;;5091432;28;20487;-75
2024/01/13 10:35:48;;;;;;;30.47;19.53;;;;;;;;;;5097988;28;20558;-75
2024/01/13 10:38:14;;;;;;;33.30;21.10;;;;;;;;;;5090862;28;20463;-76
2024/01/13 10:40:42;;;;;;;34.17;21.07;;;;;;;;;;5099940;28;20578;-75
2024/01/13 10:43:11;;;;;;;33.00;20.70;;;;;;;;;;5108007;28;20472;-73
2024/01/13 10:45:41;;;;;;;38.20;22.70;;;;;;;;;;5092730;28;20473;-75
2024/01/13 10:48:11;;;;;;;34.23;20.77;;;;;;;;;;5103628;28;20470;-74
2024/01/13 10:50:39;;;;;;;36.77;22.23;;;;;;;;;;5095593;28;20483;-75
2024/01/13 10:53:12;;;;;;;35.73;21.10;;;;;;;;;;5102576;28;20467;-75
2024/01/13 10:55:39;;;;;;;32.20;20.70;;;;;;;;;;5099676;28;20443;-76
2024/01/13 10:58:07;;;;;;;32.33;21.20;;;;;;;;;;5096385;28;20455;-75
2024/01/13 11:00:34;;;;;;;35.30;21.50;;;;;;;;;;5093723;28;20873;-76
2024/01/13 11:03:02;;;;;;;32.30;20.60;;;;;;;;;;5096357;28;20458;-75
2024/01/13 11:05:29;;;;;;;38.33;22.10;;;;;;;;;;5098260;28;21156;-76
2024/01/13 11:07:56;;;;;;;32.67;20.90;;;;;;;;;;5101031;28;20476;-75
2024/01/13 11:10:25;;;;;;;30.77;20.87;;;;;;;;;;5107872;28;20478;-76
2024/01/13 11:12:57;;;;;;;32.67;20.60;;;;;;;;;;5105606;28;20467;-75
2024/01/13 11:15:27;;;;;;;35.20;20.80;;;;;;;;;;5097917;28;20502;-76
2024/01/13 11:17:54;;;;;;;27.63;18.73;;;;;;;;;;5093428;28;20565;-76
2024/01/13 11:20:20;;;;;;;28.97;19.33;;;;;;;;;;5097087;28;20528;-75
2024/01/13 11:22:56;;;;;;;28.80;19.10;;;;;;;;;;5089254;28;20510;-75
2024/01/13 11:25:24;;;;;;;26.63;17.00;;;;;;;;;;5097733;28;21424;-75
2024/01/13 11:27:53;;;;;;;24.13;16.37;;;;;;;;;;5100707;28;20443;-76
2024/01/13 11:30:30;;;;;;;25.53;17.20;;;;;;;;;;5096899;28;20475;-74
2024/01/13 11:32:56;;;;;;;24.33;16.50;;;;;;;;;;5088245;28;20462;-76
2024/01/13 11:35:23;;;;;;;28.73;17.97;;;;;;;;;;5098812;28;20545;-75
2024/01/13 11:37:54;;;;;;;24.07;15.60;;;;;;;;;;5089032;28;20446;-75
2024/01/13 11:40:20;;;;;;;24.33;15.80;;;;;;;;;;5088697;28;20486;-75
2024/01/13 11:42:47;;;;;;;24.00;16.17;;;;;;;;;;5097258;28;20530;-75
2024/01/13 11:45:14;;;;;;;24.40;14.63;;;;;;;;;;5093261;28;20431;-74
2024/01/13 11:47:42;;;;;;;22.43;14.87;;;;;;;;;;5096074;28;20454;-74
2024/01/13 11:50:23;;;;;;;21.10;13.20;;;;;;;;;;5102215;28;20448;-75
2024/01/13 11:52:50;;;;;;;18.17;12.77;;;;;;;;;;5102000;28;21074;-75
2024/01/13 11:55:16;;;;;;;19.20;13.43;;;;;;;;;;5107734;28;20521;-74
2024/01/13 11:57:44;;;;;;;21.00;13.10;;;;;;;;;;5097654;28;20511;-73
2024/01/13 12:00:10;;;;;;;20.80;12.40;;;;;;;;;;5107017;28;20494;-75
2024/01/13 12:02:37;;;;;;;17.77;12.20;;;;;;;;;;5096619;28;20466;-74
2024/01/13 12:05:07;;;;;;;20.60;13.83;;;;;;;;;;5102730;28;20874;-74
2024/01/13 12:07:33;;;;;;;17.97;12.37;;;;;;;;;;5106916;28;20557;-76
2024/01/13 12:10:00;;;;;;;20.30;13.60;;;;;;;;;;5115273;28;20493;-74
2024/01/13 12:12:26;;;;;;;18.30;12.57;;;;;;;;;;5115395;28;20489;-75
2024/01/13 12:14:52;;;;;;;18.33;11.90;;;;;;;;;;5108312;28;20491;-75
2024/01/13 12:17:19;;;;;;;17.53;12.20;;;;;;;;;;5104431;28;21014;-76
2024/01/13 12:19:45;;;;;;;18.80;11.93;;;;;;;;;;5112775;28;20533;-75
2024/01/13 12:22:13;;;;;;;13.50;9.67;;;;;;;;;;5113021;28;20745;-76
2024/01/13 12:24:40;;;;;;;17.40;11.53;;;;;;;;;;5107418;28;20478;-76
2024/01/13 12:27:06;;;;;;;13.70;9.90;;;;;;;;;;5109646;28;20454;-75
2024/01/13 12:29:34;;;;;;;15.40;10.13;;;;;;;;;;5102597;28;20569;-76
2024/01/13 12:32:01;;;;;;;13.33;9.57;;;;;;;;;;5111281;28;20453;-77
2024/01/13 12:34:27;;;;;;;14.17;9.77;;;;;;;;;;5109655;28;20455;-76
2024/01/13 12:36:55;;;;;;;16.10;10.70;;;;;;;;;;5112975;28;20537;-76
2024/01/13 12:39:23;;;;;;;13.80;10.00;;;;;;;;;;5112982;28;20510;-76
2024/01/13 12:41:51;;;;;;;14.67;9.43;;;;;;;;;;5108744;28;20455;-76
2024/01/13 12:44:17;;;;;;;14.80;9.23;;;;;;;;;;5108563;28;20461;-76
2024/01/13 12:46:44;;;;;;;14.00;9.97;;;;;;;;;;5106000;28;20442;-74
2024/01/13 12:49:12;;;;;;;15.17;10.23;;;;;;;;;;5115824;28;20489;-74
2024/01/13 12:51:40;;;;;;;13.17;9.40;;;;;;;;;;5107155;28;20449;-75
2024/01/13 12:54:07;;;;;;;17.57;10.07;;;;;;;;;;5105435;28;20459;-74
2024/01/13 12:56:35;;;;;;;15.37;9.87;;;;;;;;;;5104689;28;20459;-76
2024/01/13 12:59:01;;;;;;;14.77;9.70;;;;;;;;;;5102364;28;20517;-75
2024/01/13 13:01:28;;;;;;;15.23;9.67;;;;;;;;;;5112815;28;20475;-75
2024/01/13 13:03:54;;;;;;;17.33;10.77;;;;;;;;;;5102303;28;20482;-75
2024/01/13 13:06:21;;;;;;;15.20;10.13;;;;;;;;;;5109106;28;21148;-76
2024/01/13 13:08:47;;;;;;;15.53;10.27;;;;;;;;;;5098408;28;20446;-76
2024/01/13 13:11:14;;;;;;;16.70;11.17;;;;;;;;;;5103353;28;20516;-76
2024/01/13 13:13:42;;;;;;;17.73;11.00;;;;;;;;;;5099007;28;20452;-75
2024/01/13 13:16:08;;;;;;;18.90;11.47;;;;;;;;;;5105894;28;20529;-76
2024/01/13 13:18:35;;;;;;;17.37;11.10;;;;;;;;;;5099002;28;20474;-76
2024/01/13 13:21:01;;;;;;;18.90;12.13;;;;;;;;;;5104378;28;20988;-76
2024/01/13 13:23:28;;;;;;;21.20;12.40;;;;;;;;;;5108097;28;20515;-76
2024/01/13 13:25:54;;;;;;;22.80;13.20;;;;;;;;;;5095616;28;20486;-77
2024/01/13 13:28:21;;;;;;;20.23;12.47;;;;;;;;;;5103651;28;20475;-76
2024/01/13 13:30:49;;;;;;;22.10;12.10;;;;;;;;;;5112332;28;20478;-77
2024/01/13 13:33:15;;;;;;;20.30;12.83;;;;;;;;;;5106891;28;20558;-75
2024/01/13 13:35:42;;;;;;;24.43;12.60;;;;;;;;;;5108466;28;20558;-76
2024/01/13 13:38:08;;;;;;;19.23;11.83;;;;;;;;;;5111978;28;20485;-75
2024/01/13 13:40:36;;;;;;;21.57;12.40;;;;;;;;;;5114671;28;20509;-76
2024/01/13 13:43:03;;;;;;;24.77;13.03;;;;;;;;;;5111308;28;20454;-74
2024/01/13 13:45:29;;;;;;;21.43;13.03;;;;;;;;;;5099678;28;20516;-74
2024/01/13 13:47:58;;;;;;;20.20;12.97;;;;;;;;;;5105873;28;20449;-74
2024/01/13 13:50:24;;;;;;;22.43;13.40;;;;;;;;;;5106592;28;20463;-76
2024/01/13 13:52:51;;;;;;;21.40;13.10;;;;;;;;;;5103999;28;20495;-75
2024/01/13 13:55:17;;;;;;;28.07;15.00;;;;;;;;;;5106321;28;20508;-76
2024/01/13 13:57:44;;;;;;;24.57;15.00;;;;;;;;;;5090758;28;20455;-76
2024/01/13 14:00:10;;;;;;;28.63;16.13;;;;;;;;;;5104088;28;20498;-75
2024/01/13 14:02:38;;;;;;;27.83;15.07;;;;;;;;;;5113019;28;20485;-76
2024/01/13 14:05:06;;;;;;;24.50;14.80;;;;;;;;;;5107571;28;20442;-73
2024/01/13 14:07:32;;;;;;;26.73;15.37;;;;;;;;;;5110031;28;21015;-74
2024/01/13 14:09:59;;;;;;;26.80;16.00;;;;;;;;;;5108180;28;20474;-74
2024/01/13 14:12:25;;;;;;;26.40;16.67;;;;;;;;;;5101346;28;20477;-75
2024/01/13 14:14:52;;;;;;;31.03;16.13;;;;;;;;;;5099611;28;20561;-75
2024/01/13 14:17:18;;;;;;;29.90;16.93;;;;;;;;;;5091897;28;20467;-76
2024/01/13 14:19:44;;;;;;;30.30;16.37;;;;;;;;;;5091570;28;20443;-76